createdAt,value
2019-05-17T00:01:37.628Z,17.73
2019-05-17T00:04:07.221Z,18.10
2019-05-17T00:06:36.964Z,16.67
2019-05-17T00:09:07.343Z,17.00
2019-05-17T00:11:36.745Z,16.10
2019-05-17T00:14:06.359Z,17.57
2019-05-17T00:16:37.351Z,17.90
2019-05-17T00:19:07.467Z,19.27
2019-05-17T00:21:36.987Z,17.40
2019-05-17T00:24:06.731Z,19.20
2019-05-17T00:26:36.275Z,17.00
2019-05-17T00:29:06.857Z,21.00
2019-05-17T00:31:36.983Z,18.57
2019-05-17T00:34:07.287Z,21.30
2019-05-17T00:36:37.477Z,21.50
2019-05-17T00:39:07.579Z,18.67
2019-05-17T00:41:37.455Z,17.80
2019-05-17T00:44:06.688Z,19.20
2019-05-17T00:46:37.278Z,17.70
2019-05-17T00:49:06.516Z,16.93
2019-05-17T00:51:36.932Z,18.43
2019-05-17T00:54:06.768Z,21.00
2019-05-17T00:56:37.231Z,16.47
2019-05-17T00:59:07.442Z,16.13
2019-05-17T01:01:36.670Z,18.43
2019-05-17T01:04:06.903Z,18.53
2019-05-17T01:06:37.565Z,17.27
2019-05-17T01:09:07.906Z,23.30
2019-05-17T01:11:36.934Z,15.00
2019-05-17T01:14:06.857Z,18.87
2019-05-17T01:16:36.774Z,17.03
2019-05-17T01:19:06.806Z,18.10
2019-05-17T01:21:36.699Z,18.80
2019-05-17T01:24:06.828Z,19.57
2019-05-17T01:26:37.393Z,16.47
2019-05-17T01:29:06.785Z,17.63
2019-05-17T01:31:37.279Z,16.63
2019-05-17T01:34:07.338Z,17.87
2019-05-17T01:36:37.035Z,21.20
2019-05-17T01:39:17.027Z,18.57
2019-05-17T01:41:37.256Z,21.23
2019-05-17T01:44:07.518Z,18.10
2019-05-17T01:46:37.015Z,23.03
2019-05-17T01:49:06.867Z,18.27
2019-05-17T01:51:36.999Z,15.27
2019-05-17T01:54:06.817Z,16.43
2019-05-17T01:56:36.966Z,16.13
2019-05-17T01:59:06.873Z,16.17
2019-05-17T02:01:37.075Z,15.83
2019-05-17T02:04:06.731Z,16.30
2019-05-17T02:06:36.602Z,18.03
2019-05-17T02:09:07.078Z,17.60
2019-05-17T02:11:37.232Z,16.23
2019-05-17T02:14:07.078Z,15.00
2019-05-17T02:16:37.676Z,15.77
2019-05-17T02:19:06.821Z,15.30
2019-05-17T02:21:36.722Z,16.27
2019-05-17T02:24:07.987Z,17.90
2019-05-17T02:26:37.488Z,18.63
2019-05-17T02:29:06.608Z,17.27
2019-05-17T02:31:35.920Z,16.53
2019-05-17T02:34:04.843Z,20.23
2019-05-17T02:36:34.629Z,22.03
2019-05-17T02:39:23.572Z,22.43
2019-05-17T02:41:53.352Z,20.83
2019-05-17T02:44:23.588Z,25.47
2019-05-17T02:46:53.732Z,25.60
2019-05-17T02:49:23.538Z,18.27
2019-05-17T02:51:52.952Z,21.07
2019-05-17T02:54:23.539Z,26.97
2019-05-17T02:56:53.868Z,23.90
2019-05-17T02:59:23.276Z,19.37
2019-05-17T03:01:52.853Z,24.93
2019-05-17T03:04:23.633Z,20.87
2019-05-17T03:06:53.256Z,23.33
2019-05-17T03:09:23.401Z,24.57
2019-05-17T03:11:56.691Z,22.77
2019-05-17T03:14:23.092Z,24.40
2019-05-17T03:16:53.710Z,22.57
2019-05-17T03:19:23.582Z,22.27
2019-05-17T03:21:53.530Z,21.93
2019-05-17T03:24:22.822Z,20.83
2019-05-17T03:26:52.941Z,26.43
2019-05-17T03:29:22.658Z,21.87
2019-05-17T03:31:59.774Z,25.93
2019-05-17T03:34:26.548Z,25.03
2019-05-17T03:36:56.541Z,23.13
2019-05-17T03:39:24.866Z,25.53
2019-05-17T03:41:53.776Z,22.50
2019-05-17T03:44:22.787Z,22.77
2019-05-17T03:46:53.139Z,25.97
2019-05-17T03:49:22.513Z,22.80
2019-05-17T03:51:53.260Z,23.10
2019-05-17T03:54:22.793Z,24.13
2019-05-17T03:56:53.201Z,23.47
2019-05-17T03:59:24.206Z,22.10
2019-05-17T04:01:52.914Z,25.03
2019-05-17T04:04:22.941Z,18.77
2019-05-17T04:06:52.616Z,20.10
2019-05-17T04:09:22.447Z,19.63
2019-05-17T04:11:54.488Z,18.10
2019-05-17T04:14:23.269Z,18.27
2019-05-17T04:16:53.592Z,17.97
2019-05-17T04:19:23.062Z,17.67
2019-05-17T04:21:53.618Z,19.27
2019-05-17T04:24:23.101Z,20.57
2019-05-17T04:26:52.598Z,18.77
2019-05-17T04:29:22.727Z,20.07
2019-05-17T04:31:54.283Z,23.33
2019-05-17T04:34:22.466Z,20.83
2019-05-17T04:36:52.257Z,19.67
2019-05-17T04:39:22.674Z,19.23
2019-05-17T04:41:54.812Z,23.57
2019-05-17T04:44:23.103Z,20.33
2019-05-17T04:46:53.603Z,23.50
2019-05-17T04:49:25.662Z,20.30
2019-05-17T04:51:54.490Z,22.23
2019-05-17T04:54:24.291Z,25.43
2019-05-17T04:56:53.416Z,20.73
2019-05-17T04:59:24.321Z,19.17
2019-05-17T05:01:53.797Z,18.20
2019-05-17T05:04:22.841Z,19.87
2019-05-17T05:06:52.461Z,18.80
2019-05-17T05:09:23.135Z,17.80
2019-05-17T05:12:01.151Z,16.93
2019-05-17T05:14:26.015Z,16.47
2019-05-17T05:16:54.729Z,16.37
2019-05-17T05:19:23.487Z,15.70
2019-05-17T05:21:52.279Z,15.73
2019-05-17T05:24:22.270Z,18.57
2019-05-17T05:26:51.786Z,20.07
2019-05-17T05:29:21.649Z,22.40
2019-05-17T05:31:52.887Z,23.30
2019-05-17T05:34:21.715Z,22.77
2019-05-17T05:36:52.451Z,24.53
2019-05-17T05:39:22.852Z,32.87
2019-05-17T05:41:51.894Z,35.00
2019-05-17T05:44:21.800Z,40.30
2019-05-17T05:46:51.468Z,44.97
2019-05-17T05:49:21.711Z,54.20
2019-05-17T05:51:52.358Z,50.90
2019-05-17T05:54:41.253Z,54.63
2019-05-17T05:57:12.476Z,58.17
2019-05-17T05:59:42.376Z,64.37
2019-05-17T06:02:12.369Z,66.03
2019-05-17T06:04:42.453Z,62.43
2019-05-17T06:07:12.877Z,59.50
2019-05-17T06:09:42.362Z,61.43
2019-05-17T06:12:23.334Z,50.13
2019-05-17T06:14:41.895Z,47.77
2019-05-17T06:17:12.630Z,44.17
2019-05-17T06:19:42.188Z,38.00
2019-05-17T06:22:11.987Z,43.47
2019-05-17T06:24:42.503Z,41.60
2019-05-17T06:27:12.372Z,49.23
2019-05-17T06:29:41.574Z,56.00
2019-05-17T06:32:11.920Z,60.17
2019-05-17T06:34:42.240Z,57.75
2019-05-17T06:37:13.330Z,55.43
2019-05-17T06:39:42.154Z,54.37
2019-05-17T06:42:12.059Z,55.78
2019-05-17T06:44:41.730Z,49.67
2019-05-17T06:47:11.927Z,52.07
2019-05-17T06:49:42.377Z,50.57
2019-05-17T06:52:11.763Z,53.10
2019-05-17T06:54:41.763Z,51.40
2019-05-17T06:57:12.775Z,50.87
2019-05-17T06:59:41.217Z,53.20
2019-05-17T07:02:10.477Z,52.83
2019-05-17T07:04:39.672Z,47.53
2019-05-17T07:07:27.197Z,48.50
2019-05-17T07:10:00.233Z,46.43
2019-05-17T07:12:30.706Z,51.60
2019-05-17T07:15:01.644Z,53.05
2019-05-17T07:17:30.438Z,46.68
2019-05-17T07:19:59.851Z,46.90
2019-05-17T07:22:29.624Z,48.75
2019-05-17T07:24:59.742Z,52.07
2019-05-17T07:27:38.759Z,48.58
2019-05-17T07:29:59.289Z,48.40
2019-05-17T07:32:29.778Z,50.03
2019-05-17T07:35:00.069Z,45.50
2019-05-17T07:37:30.402Z,47.07
2019-05-17T07:40:04.815Z,38.10
2019-05-17T07:42:30.275Z,33.33
2019-05-17T07:45:00.572Z,22.37
2019-05-17T07:47:29.625Z,21.07
2019-05-17T07:50:00.729Z,21.17
2019-05-17T07:52:29.990Z,18.73
2019-05-17T07:55:02.426Z,16.83
2019-05-17T07:57:30.035Z,16.62
2019-05-17T07:59:59.938Z,13.65
2019-05-17T08:02:30.713Z,14.75
2019-05-17T08:05:00.465Z,14.30
2019-05-17T08:07:30.153Z,16.07
2019-05-17T08:10:00.170Z,11.03
2019-05-17T08:12:30.405Z,11.68
2019-05-17T08:15:00.072Z,13.43
2019-05-17T08:17:30.427Z,10.60
2019-05-17T08:20:00.562Z,11.08
2019-05-17T08:22:29.919Z,11.08
2019-05-17T08:25:00.022Z,10.53
2019-05-17T08:27:29.675Z,9.37
2019-05-17T08:29:59.768Z,10.13
2019-05-17T08:32:31.392Z,10.37
2019-05-17T08:35:00.560Z,11.97
2019-05-17T08:37:30.170Z,10.37
2019-05-17T08:40:00.053Z,14.65
2019-05-17T08:42:30.013Z,11.00
2019-05-17T08:45:00.219Z,14.90
2019-05-17T08:47:30.012Z,16.77
2019-05-17T08:50:00.536Z,18.62
2019-05-17T08:52:29.555Z,16.93
2019-05-17T08:55:00.338Z,17.48
2019-05-17T08:57:30.310Z,23.25
2019-05-17T09:00:00.793Z,16.93
2019-05-17T09:02:29.936Z,16.62
2019-05-17T09:05:00.521Z,17.45
2019-05-17T09:07:29.606Z,18.35
2019-05-17T09:09:58.599Z,18.30
2019-05-17T09:12:29.856Z,17.62
2019-05-17T09:14:57.692Z,19.15
2019-05-17T09:17:26.463Z,20.55
2019-05-17T09:19:55.178Z,20.05
2019-05-17T09:22:23.908Z,19.75
2019-05-17T09:24:52.613Z,17.57
2019-05-17T09:27:21.438Z,20.72
2019-05-17T09:29:50.127Z,20.30
2019-05-17T09:32:20.209Z,20.25
2019-05-17T09:34:49.799Z,19.30
2019-05-17T09:37:22.202Z,20.82
2019-05-17T09:40:00.053Z,19.65
2019-05-17T09:42:30.244Z,22.55
2019-05-17T09:45:00.322Z,21.37
2019-05-17T09:47:30.062Z,22.62
2019-05-17T09:50:01.254Z,20.82
2019-05-17T09:52:30.107Z,21.60
2019-05-17T09:55:00.462Z,20.57
2019-05-17T09:57:29.817Z,22.02
2019-05-17T10:00:00.145Z,26.77
2019-05-17T10:02:29.228Z,23.22
2019-05-17T10:04:59.822Z,23.15
2019-05-17T10:07:29.880Z,20.20
2019-05-17T10:09:59.723Z,20.08
2019-05-17T10:12:28.739Z,18.10
2019-05-17T10:14:57.516Z,21.77
2019-05-17T10:17:26.166Z,19.55
2019-05-17T10:19:54.946Z,18.30
2019-05-17T10:22:23.724Z,16.10
2019-05-17T10:24:52.461Z,19.12
2019-05-17T10:27:21.265Z,18.32
2019-05-17T10:29:50.194Z,23.95
2019-05-17T10:32:20.520Z,23.12
2019-05-17T10:34:49.685Z,19.80
2019-05-17T10:37:20.294Z,20.68
2019-05-17T10:39:50.287Z,25.62
2019-05-17T10:42:20.979Z,20.65
2019-05-17T10:44:51.309Z,22.32
2019-05-17T10:47:20.192Z,19.55
2019-05-17T10:49:49.979Z,16.50
2019-05-17T10:52:20.303Z,15.28
2019-05-17T10:54:50.164Z,17.12
2019-05-17T10:57:19.443Z,14.93
2019-05-17T10:59:49.893Z,14.45
2019-05-17T11:02:19.690Z,15.03
2019-05-17T11:04:54.226Z,13.78
2019-05-17T11:07:23.044Z,14.43
2019-05-17T11:09:51.844Z,15.45
2019-05-17T11:12:20.653Z,15.63
2019-05-17T11:14:56.061Z,13.20
2019-05-17T11:17:38.774Z,11.35
2019-05-17T11:20:09.512Z,12.05
2019-05-17T11:22:38.294Z,10.80
2019-05-17T11:25:07.663Z,15.03
2019-05-17T11:27:36.635Z,12.05
2019-05-17T11:30:06.670Z,13.38
2019-05-17T11:32:35.522Z,12.88
2019-05-17T11:35:05.625Z,10.88
2019-05-17T11:37:34.426Z,11.00
2019-05-17T11:40:08.016Z,10.65
2019-05-17T11:42:35.220Z,13.45
2019-05-17T11:45:04.425Z,10.48
2019-05-17T11:47:33.199Z,12.58
2019-05-17T11:50:02.508Z,8.73
2019-05-17T11:52:31.250Z,9.38
2019-05-17T11:55:00.053Z,8.48
2019-05-17T11:57:28.829Z,12.17
2019-05-17T11:59:58.410Z,9.00
2019-05-17T12:02:27.196Z,10.55
2019-05-17T12:04:56.015Z,10.82
2019-05-17T12:07:24.624Z,12.30
2019-05-17T12:09:53.313Z,12.53
2019-05-17T12:12:22.103Z,11.03
2019-05-17T12:14:51.076Z,13.93
2019-05-17T12:17:19.830Z,14.00
2019-05-17T12:19:48.443Z,13.05
2019-05-17T12:22:17.304Z,14.85
2019-05-17T12:24:46.166Z,12.63
2019-05-17T12:27:15.085Z,10.63
2019-05-17T12:29:43.913Z,11.90
2019-05-17T12:32:16.805Z,12.37
2019-05-17T12:34:43.227Z,12.35
2019-05-17T12:37:12.026Z,14.05
2019-05-17T12:39:40.882Z,12.30
2019-05-17T12:42:09.639Z,13.15
2019-05-17T12:44:38.477Z,16.73
2019-05-17T12:47:07.270Z,15.60
2019-05-17T12:49:35.891Z,16.73
2019-05-17T12:52:04.757Z,12.85
2019-05-17T12:54:33.561Z,12.03
2019-05-17T12:57:04.514Z,12.05
2019-05-17T12:59:32.740Z,8.70
2019-05-17T13:02:01.455Z,7.67
2019-05-17T13:04:53.202Z,10.40
2019-05-17T13:07:11.852Z,12.33
2019-05-17T13:09:40.565Z,7.23
2019-05-17T13:12:09.544Z,8.77
2019-05-17T13:14:38.226Z,9.17
2019-05-17T13:17:07.118Z,10.47
2019-05-17T13:19:36.082Z,8.10
2019-05-17T13:22:04.936Z,7.87
2019-05-17T13:24:33.901Z,12.83
2019-05-17T13:27:02.760Z,11.40
2019-05-17T13:29:31.586Z,7.23
2019-05-17T13:32:00.404Z,7.17
2019-05-17T13:34:29.299Z,7.83
2019-05-17T13:36:58.141Z,11.53
2019-05-17T13:39:26.991Z,4.77
2019-05-17T13:41:55.690Z,9.10
2019-05-17T13:44:24.537Z,4.90
2019-05-17T13:46:53.218Z,7.07
2019-05-17T13:49:22.053Z,4.70
2019-05-17T13:51:50.915Z,4.00
2019-05-17T13:54:19.851Z,4.87
2019-05-17T13:56:48.679Z,7.53
2019-05-17T13:59:17.353Z,8.30
2019-05-17T14:01:46.225Z,5.43
2019-05-17T14:04:15.042Z,5.53
2019-05-17T14:06:43.962Z,7.23
2019-05-17T14:09:12.719Z,5.93
2019-05-17T14:11:41.548Z,6.60
2019-05-17T14:14:10.251Z,6.93
2019-05-17T14:16:38.947Z,5.93
2019-05-17T14:19:07.959Z,4.23
2019-05-17T14:21:37.000Z,3.57
2019-05-17T14:24:05.947Z,3.63
2019-05-17T14:26:34.712Z,4.53
2019-05-17T14:29:24.713Z,5.22
2019-05-17T14:32:00.472Z,6.93
2019-05-17T14:34:29.445Z,7.75
2019-05-17T14:36:58.460Z,2.55
2019-05-17T14:39:27.251Z,2.62
2019-05-17T14:41:59.431Z,3.57
2019-05-17T14:44:32.862Z,4.10
2019-05-17T14:47:05.380Z,2.67
2019-05-17T14:49:34.240Z,2.92
2019-05-17T14:52:03.111Z,3.58
2019-05-17T14:54:31.883Z,3.22
2019-05-17T14:57:00.727Z,2.80
2019-05-17T14:59:29.604Z,5.75
2019-05-17T15:01:58.672Z,6.53
2019-05-17T15:04:29.562Z,2.62
2019-05-17T15:06:58.045Z,3.27
2019-05-17T15:09:27.257Z,4.58
2019-05-17T15:11:59.046Z,4.35
2019-05-17T15:14:29.672Z,3.72
2019-05-17T15:16:58.961Z,3.22
2019-05-17T15:19:27.729Z,3.87
2019-05-17T15:21:56.666Z,2.90
2019-05-17T15:24:25.699Z,7.12
2019-05-17T15:27:05.379Z,3.55
2019-05-17T15:29:28.099Z,3.27
2019-05-17T15:31:56.928Z,5.33
2019-05-17T15:34:25.926Z,4.00
2019-05-17T15:36:54.547Z,3.98
2019-05-17T15:39:23.487Z,4.12
2019-05-17T15:41:52.660Z,5.08
2019-05-17T15:44:21.605Z,4.15
2019-05-17T15:46:50.605Z,7.78
2019-05-17T15:49:19.461Z,4.33
2019-05-17T15:51:48.368Z,7.90
2019-05-17T15:54:17.189Z,4.60
2019-05-17T15:56:50.436Z,9.03
2019-05-17T15:59:21.091Z,7.45
2019-05-17T16:01:50.123Z,6.30
2019-05-17T16:04:18.968Z,3.90
2019-05-17T16:06:47.856Z,5.22
2019-05-17T16:09:16.663Z,4.12
2019-05-17T16:11:47.237Z,7.22
2019-05-17T16:14:15.956Z,5.17
2019-05-17T16:16:44.651Z,5.08
2019-05-17T16:19:13.457Z,5.67
2019-05-17T16:21:43.364Z,5.42
2019-05-17T16:24:12.237Z,6.65
2019-05-17T16:26:41.225Z,4.97
2019-05-17T16:29:10.013Z,5.62
2019-05-17T16:31:38.703Z,4.58
2019-05-17T16:34:07.614Z,5.55
2019-05-17T16:36:36.285Z,4.87
2019-05-17T16:39:08.379Z,5.03
2019-05-17T16:41:37.979Z,7.23
2019-05-17T16:44:06.905Z,6.83
2019-05-17T16:46:35.732Z,6.37
2019-05-17T16:49:04.673Z,5.17
2019-05-17T16:51:33.515Z,5.83
2019-05-17T16:54:02.581Z,6.42
2019-05-17T16:56:31.421Z,5.00
2019-05-17T16:59:00.161Z,5.40
2019-05-17T17:01:29.087Z,7.03
2019-05-17T17:03:57.923Z,5.75
2019-05-17T17:06:26.832Z,5.25
2019-05-17T17:08:55.770Z,7.08
2019-05-17T17:11:24.794Z,5.47
2019-05-17T17:13:54.894Z,4.95
2019-05-17T17:16:23.555Z,4.15
2019-05-17T17:18:52.459Z,4.62
2019-05-17T17:21:21.243Z,5.20
2019-05-17T17:23:49.948Z,5.33
2019-05-17T17:26:18.763Z,6.08
2019-05-17T17:28:47.572Z,6.00
2019-05-17T17:31:17.330Z,8.78
2019-05-17T17:33:46.116Z,6.90
2019-05-17T17:36:15.309Z,5.58
2019-05-17T17:38:43.997Z,6.62
2019-05-17T17:41:12.661Z,7.08
2019-05-17T17:43:41.500Z,6.10
2019-05-17T17:46:10.391Z,8.43
2019-05-17T17:48:39.116Z,5.95
2019-05-17T17:51:11.726Z,8.38
2019-05-17T17:53:40.262Z,10.78
2019-05-17T17:56:13.002Z,8.43
2019-05-17T17:58:39.517Z,7.28
2019-05-17T18:01:09.480Z,5.65
2019-05-17T18:03:38.262Z,6.83
2019-05-17T18:06:25.192Z,7.22
2019-05-17T18:08:55.470Z,8.93
2019-05-17T18:11:26.724Z,7.33
2019-05-17T18:13:55.516Z,10.00
2019-05-17T18:16:24.357Z,7.97
2019-05-17T18:18:53.362Z,7.50
2019-05-17T18:21:22.111Z,9.73
2019-05-17T18:23:50.992Z,7.37
2019-05-17T18:26:19.635Z,7.80
2019-05-17T18:28:48.402Z,10.08
2019-05-17T18:31:17.280Z,9.18
2019-05-17T18:33:46.315Z,9.95
2019-05-17T18:36:15.097Z,9.43
2019-05-17T18:38:46.947Z,10.03
2019-05-17T18:41:15.738Z,15.03
2019-05-17T18:46:58.243Z,10.72
2019-05-17T18:49:26.277Z,13.07
2019-05-17T18:52:10.268Z,11.90
2019-05-17T18:57:30.548Z,8.18
2019-05-17T18:59:59.327Z,10.90
2019-05-17T19:02:28.160Z,11.08
2019-05-17T19:04:56.982Z,12.47
2019-05-17T19:07:25.762Z,11.22
2019-05-17T19:09:57.835Z,11.25
2019-05-17T19:12:29.252Z,15.72
2019-05-17T19:15:00.622Z,14.73
2019-05-17T19:17:28.697Z,14.47
2019-05-17T19:19:57.716Z,13.43
2019-05-17T19:22:37.138Z,10.87
2019-05-17T19:25:10.309Z,13.22
2019-05-17T19:27:38.944Z,10.63
2019-05-17T19:30:08.757Z,11.53
2019-05-17T19:32:37.428Z,15.97
2019-05-17T19:35:07.855Z,13.73
2019-05-17T19:37:36.686Z,17.73
2019-05-17T19:40:09.052Z,14.60
2019-05-17T19:42:37.837Z,15.65
2019-05-17T19:45:10.008Z,14.47
2019-05-17T19:47:38.973Z,12.98
2019-05-17T19:50:09.070Z,15.70
2019-05-17T19:52:38.138Z,13.63
2019-05-17T19:55:07.205Z,18.55
2019-05-17T19:57:36.486Z,13.88
2019-05-17T20:00:08.311Z,19.87
2019-05-17T20:02:37.184Z,20.93
2019-05-17T20:05:06.948Z,15.65
2019-05-17T20:07:38.711Z,14.20
2019-05-17T20:10:10.031Z,17.40
2019-05-17T20:12:38.874Z,19.30
2019-05-17T20:15:17.359Z,16.20
2019-05-17T20:17:58.365Z,19.40
2019-05-17T20:20:27.342Z,21.30
2019-05-17T20:22:56.469Z,18.13
2019-05-17T20:25:30.307Z,22.77
2019-05-17T20:27:58.987Z,25.43
2019-05-17T20:30:27.740Z,21.50
2019-05-17T20:32:56.518Z,20.83
2019-05-17T20:35:25.217Z,22.93
2019-05-17T20:37:54.091Z,24.07
2019-05-17T20:40:23.117Z,26.03
2019-05-17T20:42:51.879Z,25.90
2019-05-17T20:45:32.531Z,22.53
2019-05-17T20:47:56.102Z,25.27
2019-05-17T20:50:24.822Z,25.70
2019-05-17T20:52:53.684Z,30.50
2019-05-17T20:55:22.460Z,29.87
2019-05-17T20:57:51.152Z,26.97
2019-05-17T21:00:20.372Z,25.33
2019-05-17T21:02:49.107Z,27.87
2019-05-17T21:05:19.438Z,28.67
2019-05-17T21:07:48.397Z,28.27
2019-05-17T21:10:20.312Z,31.53
2019-05-17T21:12:49.257Z,26.93
2019-05-17T21:15:18.212Z,30.87
2019-05-17T21:17:46.842Z,31.97
2019-05-17T21:20:15.894Z,28.97
2019-05-17T21:22:44.657Z,25.10
2019-05-17T21:25:13.475Z,27.10
2019-05-17T21:27:42.169Z,28.23
2019-05-17T21:30:14.552Z,28.50
2019-05-17T21:32:43.270Z,30.37
2019-05-17T21:35:12.078Z,27.50
2019-05-17T21:37:40.967Z,38.67
2019-05-17T21:40:10.453Z,31.27
2019-05-17T21:42:39.187Z,35.00
2019-05-17T21:45:08.346Z,34.13
2019-05-17T21:47:36.984Z,37.27
2019-05-17T21:50:05.982Z,38.47
2019-05-17T21:52:34.607Z,38.73
2019-05-17T21:55:03.389Z,37.53
2019-05-17T21:57:32.205Z,37.60
2019-05-17T22:00:01.079Z,38.53
2019-05-17T22:02:29.913Z,42.73
2019-05-17T22:04:59.673Z,39.83
2019-05-17T22:07:28.378Z,40.23
2019-05-17T22:09:57.461Z,36.37
2019-05-17T22:12:26.349Z,38.03
2019-05-17T22:14:55.009Z,38.20
2019-05-17T22:17:23.809Z,41.87
2019-05-17T22:19:52.770Z,38.30
2019-05-17T22:22:21.795Z,40.57
2019-05-17T22:24:50.963Z,44.67
2019-05-17T22:27:19.792Z,41.23
2019-05-17T22:29:48.691Z,40.40
2019-05-17T22:32:17.529Z,37.90
2019-05-17T22:34:46.431Z,43.10
2019-05-17T22:37:17.555Z,39.20
2019-05-17T22:39:45.633Z,41.73
2019-05-17T22:42:14.411Z,41.30
2019-05-17T22:44:43.337Z,39.23
2019-05-17T22:47:12.128Z,48.10
2019-05-17T22:49:41.006Z,40.67
2019-05-17T22:52:09.933Z,36.30
2019-05-17T22:54:38.730Z,38.00
2019-05-17T22:57:07.497Z,40.33
2019-05-17T22:59:36.255Z,47.73
2019-05-17T23:02:05.057Z,39.97
2019-05-17T23:04:33.857Z,42.60
2019-05-17T23:07:02.590Z,45.33
2019-05-17T23:09:31.650Z,40.97
2019-05-17T23:12:00.531Z,42.23
2019-05-17T23:14:29.202Z,48.53
2019-05-17T23:16:58.050Z,41.10
2019-05-17T23:19:26.913Z,42.47
2019-05-17T23:21:55.722Z,40.50
2019-05-17T23:24:24.402Z,40.47
2019-05-17T23:26:53.237Z,41.80
2019-05-17T23:29:22.014Z,42.30
2019-05-17T23:31:50.707Z,40.87
2019-05-17T23:34:19.579Z,40.80
2019-05-17T23:36:48.294Z,41.97
2019-05-17T23:39:17.069Z,40.83
2019-05-17T23:41:45.795Z,42.77
2019-05-17T23:44:14.528Z,43.60
2019-05-17T23:46:43.218Z,40.93
2019-05-17T23:49:11.826Z,46.73
2019-05-17T23:51:40.472Z,43.77
2019-05-17T23:54:09.210Z,36.97
2019-05-17T23:56:37.998Z,43.80
2019-05-17T23:59:06.845Z,40.77
